Time;durP1;ratioP1;P1;durP2;ratioP2;P2;SDS_P1;SDS_P2;PMS_P1;PMS_P2;Temp;Humidity;BMP_temperature;BMP_pressure;BME280_temperature;BME280_humidity;BME280_pressure;Samples;Min_cycle;Max_cycle;Signal;HPM_P1;HPM_P2
2021/09/07 00:00:23;;;;;;;2.80;2.60;;;;;;;15.34;100.00;97308.66;5052080;28;20253;-76
2021/09/07 00:02:50;;;;;;;3.60;2.37;;;;;;;15.32;100.00;97304.53;5052167;28;20193;-76
2021/09/07 00:05:17;;;;;;;3.13;2.20;;;;;;;15.16;100.00;97303.47;5051997;28;20198;-76
2021/09/07 00:07:44;;;;;;;2.73;2.47;;;;;;;15.17;100.00;97312.25;5052033;28;20643;-77
2021/09/07 00:10:13;;;;;;;3.10;2.30;;;;;;;15.15;100.00;97309.78;5051651;28;20677;-76
2021/09/07 00:12:43;;;;;;;2.47;2.27;;;;;;;14.72;100.00;97305.47;5051995;28;20198;-76
2021/09/07 00:15:13;;;;;;;3.00;2.30;;;;;;;14.82;100.00;97300.91;5051700;28;20823;-76
2021/09/07 00:17:41;;;;;;;2.60;2.23;;;;;;;14.91;100.00;97304.41;5051712;28;20194;-76
2021/09/07 00:20:09;;;;;;;4.13;2.50;;;;;;;14.81;100.00;97304.53;5051561;28;20278;-76
2021/09/07 00:22:37;;;;;;;4.80;2.77;;;;;;;14.86;100.00;97296.97;5052171;28;20292;-76
2021/09/07 00:25:06;;;;;;;2.83;2.23;;;;;;;14.93;100.00;97302.44;5051657;28;20201;-76
2021/09/07 00:27:33;;;;;;;3.53;1.93;;;;;;;14.98;100.00;97308.06;5051950;28;20198;-77
2021/09/07 00:30:02;;;;;;;5.83;2.70;;;;;;;14.71;100.00;97298.53;5051544;28;20576;-76
2021/09/07 00:32:29;;;;;;;4.33;2.50;;;;;;;14.82;100.00;97300.91;5051985;28;20280;-76
2021/09/07 00:34:56;;;;;;;3.43;2.47;;;;;;;14.95;100.00;97300.44;5051705;28;20260;-76
2021/09/07 00:37:24;;;;;;;5.00;2.50;;;;;;;14.85;100.00;97307.69;5051710;28;20288;-76
2021/09/07 00:39:51;;;;;;;3.63;2.63;;;;;;;14.70;100.00;97291.59;5051450;28;20679;-76
2021/09/07 00:42:18;;;;;;;4.53;2.50;;;;;;;14.73;100.00;97291.28;5051443;28;20212;-76
2021/09/07 00:44:46;;;;;;;2.23;2.03;;;;;;;14.62;100.00;97286.28;5051527;28;20212;-76
2021/09/07 00:47:14;;;;;;;2.83;2.30;;;;;;;14.48;100.00;97287.69;5051127;28;20204;-77
2021/09/07 00:49:42;;;;;;;2.50;2.30;;;;;;;14.44;100.00;97283.66;5051728;28;20216;-76
2021/09/07 00:52:10;;;;;;;6.07;2.43;;;;;;;14.34;100.00;97281.16;5051540;28;20248;-76
2021/09/07 00:54:39;;;;;;;4.80;2.57;;;;;;;14.41;100.00;97273.41;5046637;28;20214;-76
2021/09/07 00:57:09;;;;;;;2.33;2.03;;;;;;;14.58;100.00;97277.00;5031270;28;20293;-77
2021/09/07 00:59:37;;;;;;;3.83;2.30;;;;;;;14.44;100.00;97287.16;5031609;28;20205;-76
2021/09/07 01:02:06;;;;;;;2.93;2.63;;;;;;;14.33;100.00;97283.94;5031420;28;20205;-76
2021/09/07 01:04:35;;;;;;;3.37;2.50;;;;;;;14.07;100.00;97276.03;5031158;28;20228;-76
2021/09/07 01:07:03;;;;;;;3.13;2.23;;;;;;;13.87;100.00;97278.88;5031306;28;20195;-76
2021/09/07 01:09:31;;;;;;;5.03;2.53;;;;;;;13.77;100.00;97281.59;5031634;28;20225;-76
2021/09/07 01:11:58;;;;;;;3.50;2.60;;;;;;;13.97;100.00;97274.31;5031021;28;20675;-76
2021/09/07 01:14:30;;;;;;;2.63;2.43;;;;;;;13.85;100.00;97272.09;5031338;28;20249;-76
2021/09/07 01:16:57;;;;;;;12.93;2.90;;;;;;;13.97;100.00;97282.25;5031006;28;20205;-76
2021/09/07 01:19:24;;;;;;;4.00;2.53;;;;;;;13.92;100.00;97279.22;5031173;28;20229;-77
2021/09/07 01:21:53;;;;;;;4.20;2.73;;;;;;;14.10;100.00;97286.28;5030867;28;20195;-77
2021/09/07 01:24:23;;;;;;;2.60;2.40;;;;;;;13.99;100.00;97279.44;5031181;28;20195;-76
2021/09/07 01:26:50;;;;;;;3.03;2.60;;;;;;;13.85;100.00;97287.94;5031175;28;20228;-76
2021/09/07 01:29:18;;;;;;;4.37;2.80;;;;;;;13.73;100.00;97287.38;5030945;28;20209;-76
2021/09/07 01:31:45;;;;;;;7.73;2.40;;;;;;;13.60;100.00;97281.63;5030679;28;20205;-76
2021/09/07 01:34:20;;;;;;;3.83;2.33;;;;;;;13.44;100.00;97275.25;5030586;28;20593;-76
2021/09/07 01:36:48;;;;;;;5.20;2.80;;;;;;;13.50;100.00;97285.19;5030515;28;20187;-76
2021/09/07 01:39:15;;;;;;;4.70;2.40;;;;;;;13.65;100.00;97280.22;5030827;28;20206;-76
2021/09/07 01:41:44;;;;;;;3.13;2.80;;;;;;;13.66;100.00;97279.22;5030353;28;20194;-76
2021/09/07 01:44:11;;;;;;;2.50;2.30;;;;;;;13.63;100.00;97282.16;5030677;28;20209;-76
2021/09/07 01:46:38;;;;;;;3.43;2.50;;;;;;;13.71;100.00;97276.94;5030599;28;20195;-76
2021/09/07 01:49:09;;;;;;;5.27;2.50;;;;;;;13.68;100.00;97276.41;5030935;28;20209;-76
2021/09/07 01:51:36;;;;;;;2.57;2.33;;;;;;;13.66;100.00;97273.09;5030383;28;20190;-76
2021/09/07 01:54:04;;;;;;;2.80;2.13;;;;;;;13.79;100.00;97278.81;5030620;28;20651;-76
2021/09/07 01:56:31;;;;;;;2.93;2.63;;;;;;;13.70;100.00;97277.09;5030553;28;20326;-76
2021/09/07 01:59:00;;;;;;;3.17;2.40;;;;;;;13.31;100.00;97282.72;5030713;28;20766;-76
2021/09/07 02:01:27;;;;;;;6.53;2.87;;;;;;;13.28;100.00;97275.91;5029980;28;20281;-77
2021/09/07 02:03:54;;;;;;;3.43;2.70;;;;;;;13.24;100.00;97273.75;5030922;28;20203;-76
2021/09/07 02:06:21;;;;;;;5.13;2.80;;;;;;;13.20;100.00;97277.63;5030372;28;20667;-76
2021/09/07 02:08:49;;;;;;;2.77;2.57;;;;;;;13.07;100.00;97278.81;5030396;28;20210;-76
2021/09/07 02:11:16;;;;;;;2.73;2.33;;;;;;;13.20;100.00;97280.28;5030172;28;20221;-76
2021/09/07 02:13:43;;;;;;;2.63;2.43;;;;;;;13.12;100.00;97280.16;5029476;28;20209;-76
2021/09/07 02:16:12;;;;;;;3.53;2.77;;;;;;;13.06;100.00;97277.16;5029984;28;20234;-76
2021/09/07 02:18:39;;;;;;;3.00;2.33;;;;;;;13.05;100.00;97267.56;5030124;28;20713;-76
2021/09/07 02:21:06;;;;;;;3.67;2.40;;;;;;;13.11;100.00;97267.97;5030433;28;20282;-76
2021/09/07 02:23:34;;;;;;;3.27;2.23;;;;;;;13.06;100.00;97271.06;5030143;28;20229;-76
2021/09/07 02:26:01;;;;;;;3.83;3.07;;;;;;;13.04;100.00;97265.91;5029976;28;20281;-76
2021/09/07 02:28:28;;;;;;;2.93;2.57;;;;;;;12.95;100.00;97264.16;5029999;28;20286;-76
2021/09/07 02:30:55;;;;;;;3.37;2.40;;;;;;;12.94;100.00;97262.50;5029705;28;20203;-76
2021/09/07 02:33:24;;;;;;;3.20;2.70;;;;;;;12.93;100.00;97265.31;5030050;28;20198;-76
2021/09/07 02:35:51;;;;;;;2.70;2.50;;;;;;;12.83;100.00;97262.72;5029560;28;20228;-76
2021/09/07 02:38:19;;;;;;;9.73;3.50;;;;;;;12.77;100.00;97268.59;5030137;28;20244;-77
2021/09/07 02:40:46;;;;;;;5.80;2.67;;;;;;;12.80;100.00;97270.94;5029417;28;20199;-76
2021/09/07 02:43:13;;;;;;;4.83;2.50;;;;;;;12.78;100.00;97278.16;5030063;28;20197;-76
2021/09/07 02:45:40;;;;;;;3.53;2.50;;;;;;;12.82;100.00;97279.53;5029478;28;20201;-76
2021/09/07 02:48:07;;;;;;;2.93;2.63;;;;;;;12.73;100.00;97281.25;5029702;28;20197;-76
2021/09/07 02:50:36;;;;;;;3.17;2.87;;;;;;;12.61;100.00;97283.25;5029356;28;20205;-76
2021/09/07 02:53:03;;;;;;;5.57;2.60;;;;;;;12.76;100.00;97288.03;5030038;28;20202;-76
2021/09/07 02:55:30;;;;;;;2.43;2.23;;;;;;;12.69;100.00;97284.34;5029349;28;20700;-76
2021/09/07 02:57:58;;;;;;;4.50;2.87;;;;;;;12.59;100.00;97277.28;5029513;28;20204;-76
2021/09/07 03:00:25;;;;;;;4.50;2.73;;;;;;;12.57;100.00;97276.63;5029419;28;20209;-76
2021/09/07 03:02:52;;;;;;;3.00;2.70;;;;;;;12.45;100.00;97276.94;5029513;28;20204;-75
2021/09/07 03:05:19;;;;;;;3.83;2.73;;;;;;;12.48;100.00;97274.03;5029442;28;20214;-76
2021/09/07 03:07:48;;;;;;;2.60;2.40;;;;;;;12.57;100.00;97281.03;5029180;28;20696;-76
2021/09/07 03:10:15;;;;;;;3.83;2.70;;;;;;;12.60;100.00;97280.75;5029246;28;20210;-76
2021/09/07 03:12:43;;;;;;;3.20;2.67;;;;;;;12.67;100.00;97284.47;5029500;28;20201;-75
2021/09/07 03:15:11;;;;;;;2.73;2.53;;;;;;;12.71;100.00;97282.34;5029093;28;20223;-75
2021/09/07 03:17:38;;;;;;;6.20;2.80;;;;;;;12.67;100.00;97286.28;5028870;28;20199;-76
2021/09/07 03:20:07;;;;;;;3.40;2.77;;;;;;;12.73;100.00;97283.06;5030761;28;20287;-76
2021/09/07 03:22:34;;;;;;;3.53;2.50;;;;;;;12.64;100.00;97284.75;5049010;28;20217;-76
2021/09/07 03:25:03;;;;;;;7.10;2.73;;;;;;;12.72;100.00;97278.78;5048064;28;20201;-76
2021/09/07 03:27:30;;;;;;;3.77;2.90;;;;;;;12.59;100.00;97277.28;5048665;28;20202;-76
2021/09/07 03:29:57;;;;;;;6.77;2.97;;;;;;;12.61;100.00;97278.00;5048682;28;20200;-76
2021/09/07 03:32:25;;;;;;;4.00;2.70;;;;;;;12.42;100.00;97272.78;5049004;28;20674;-75
2021/09/07 03:34:52;;;;;;;2.73;2.50;;;;;;;12.59;100.00;97279.94;5048945;28;20194;-76
2021/09/07 03:37:20;;;;;;;4.97;2.93;;;;;;;12.37;100.00;97294.31;5047471;28;20243;-76
2021/09/07 03:39:47;;;;;;;4.57;2.53;;;;;;;12.36;100.00;97291.81;5047325;28;20206;-76
2021/09/07 03:42:15;;;;;;;3.73;3.07;;;;;;;12.40;100.00;97297.63;5048438;28;20197;-76
2021/09/07 03:44:43;;;;;;;2.50;2.30;;;;;;;12.28;100.00;97294.34;5048805;28;20291;-76
2021/09/07 03:47:10;;;;;;;3.47;3.17;;;;;;;12.33;100.00;97305.28;5048437;28;20300;-76
2021/09/07 03:49:38;;;;;;;4.07;2.83;;;;;;;12.38;100.00;97306.53;5048678;28;20763;-75
2021/09/07 03:52:06;;;;;;;2.90;2.70;;;;;;;12.28;100.00;97302.25;5048616;28;20254;-76
2021/09/07 03:54:34;;;;;;;4.47;2.63;;;;;;;12.21;100.00;97301.19;5048933;28;20282;-75
2021/09/07 03:57:01;;;;;;;2.83;2.60;;;;;;;12.29;100.00;97299.47;5048543;28;20223;-76
2021/09/07 03:59:30;;;;;;;3.80;2.70;;;;;;;12.21;100.00;97294.09;5048601;28;20206;-76
2021/09/07 04:01:57;;;;;;;4.30;2.60;;;;;;;12.26;100.00;97302.41;5048433;28;20204;-76
2021/09/07 04:04:25;;;;;;;8.03;3.37;;;;;;;12.43;100.00;97305.25;5048610;28;20287;-76
2021/09/07 04:06:52;;;;;;;3.03;2.70;;;;;;;12.36;100.00;97305.84;5048714;28;20193;-76
2021/09/07 04:09:19;;;;;;;4.13;2.77;;;;;;;12.17;100.00;97300.63;5048236;28;20670;-76
2021/09/07 04:11:47;;;;;;;3.20;2.77;;;;;;;12.07;100.00;97305.91;5048528;28;20203;-76
2021/09/07 04:14:14;;;;;;;3.20;2.90;;;;;;;12.12;100.00;97308.13;5048479;28;20194;-75
2021/09/07 04:16:43;;;;;;;2.93;2.73;;;;;;;12.09;100.00;97308.44;5048384;28;20226;-76
2021/09/07 04:19:10;;;;;;;3.20;2.83;;;;;;;11.98;100.00;97304.13;5048029;28;20682;-75
2021/09/07 04:21:38;;;;;;;5.90;2.93;;;;;;;12.15;100.00;97307.84;5048556;28;20592;-75
2021/09/07 04:24:05;;;;;;;4.63;2.97;;;;;;;12.16;100.00;97317.44;5048528;28;20218;-75
2021/09/07 04:26:33;;;;;;;5.50;2.50;;;;;;;12.08;100.00;97318.13;5047922;28;20190;-75
2021/09/07 04:29:01;;;;;;;3.57;2.80;;;;;;;11.98;100.00;97321.75;5048246;28;20204;-75
2021/09/07 04:31:28;;;;;;;2.90;2.23;;;;;;;11.89;100.00;97320.81;5048247;28;20206;-76
2021/09/07 04:33:57;;;;;;;2.80;2.60;;;;;;;11.92;100.00;97319.69;5048166;28;20200;-76
2021/09/07 04:36:24;;;;;;;4.90;3.30;;;;;;;12.09;100.00;97313.69;5048479;28;20626;-75
2021/09/07 04:38:52;;;;;;;5.20;3.67;;;;;;;11.99;100.00;97323.44;5051664;28;20193;-76
2021/09/07 04:41:19;;;;;;;3.33;3.07;;;;;;;12.00;100.00;97325.09;5051233;28;20203;-76
2021/09/07 04:43:46;;;;;;;6.07;2.90;;;;;;;12.14;100.00;97322.00;5051374;28;20210;-76
2021/09/07 04:46:15;;;;;;;4.50;2.67;;;;;;;12.28;100.00;97318.91;5051682;28;20629;-76
2021/09/07 04:48:42;;;;;;;4.03;2.77;;;;;;;12.36;100.00;97324.31;5051532;28;20219;-76
2021/09/07 04:51:11;;;;;;;4.20;2.80;;;;;;;12.26;100.00;97320.00;5051399;28;20198;-75
2021/09/07 04:53:38;;;;;;;5.50;2.87;;;;;;;12.37;100.00;97320.69;5051616;28;20206;-76
2021/09/07 04:56:05;;;;;;;4.47;2.57;;;;;;;12.25;100.00;97321.00;5051404;28;20304;-76
2021/09/07 04:58:33;;;;;;;2.83;2.63;;;;;;;12.29;100.00;97330.28;5051094;28;20205;-76
2021/09/07 05:01:00;;;;;;;6.17;3.10;;;;;;;12.48;100.00;97327.59;5051106;28;20202;-76
2021/09/07 05:03:27;;;;;;;4.03;3.27;;;;;;;12.40;100.00;97327.50;5051278;28;20200;-76
2021/09/07 05:05:54;;;;;;;4.10;3.70;;;;;;;12.46;100.00;97324.25;5051022;28;20660;-76
2021/09/07 05:08:23;;;;;;;6.67;3.27;;;;;;;12.33;100.00;97327.22;5051297;28;20200;-75
2021/09/07 05:10:50;;;;;;;8.03;3.43;;;;;;;12.32;100.00;97330.81;5050987;28;20201;-76
2021/09/07 05:13:17;;;;;;;3.93;3.33;;;;;;;12.41;100.00;97334.41;5051054;28;20297;-76
2021/09/07 05:15:44;;;;;;;9.83;3.00;;;;;;;12.40;100.00;97332.75;5050746;28;20263;-75
2021/09/07 05:18:12;;;;;;;6.40;3.67;;;;;;;12.57;100.00;97334.63;5051090;28;20710;-76
2021/09/07 05:20:39;;;;;;;19.13;4.37;;;;;;;12.44;100.00;97331.50;5051122;28;20601;-76
2021/09/07 05:23:06;;;;;;;10.30;3.20;;;;;;;12.64;100.00;97328.75;5051332;28;20232;-76
2021/09/07 05:25:35;;;;;;;12.03;3.77;;;;;;;12.63;100.00;97333.22;5050845;28;20209;-76
2021/09/07 05:28:02;;;;;;;13.20;3.70;;;;;;;12.82;100.00;97332.31;5051167;28;20306;-76
2021/09/07 05:30:29;;;;;;;10.43;3.93;;;;;;;12.86;100.00;97325.75;5050845;28;20200;-76
2021/09/07 05:32:57;;;;;;;8.30;3.87;;;;;;;13.02;100.00;97325.94;5051083;28;20256;-76
2021/09/07 05:35:24;;;;;;;7.97;3.77;;;;;;;13.12;100.00;97331.16;5050902;28;20200;-76
2021/09/07 05:37:51;;;;;;;11.53;3.87;;;;;;;13.23;100.00;97335.38;5050563;28;20194;-76
2021/09/07 05:40:18;;;;;;;18.67;4.27;;;;;;;13.39;100.00;97330.31;5050511;28;20216;-76
2021/09/07 05:42:47;;;;;;;10.13;3.47;;;;;;;13.29;100.00;97332.19;5050852;28;20203;-76
2021/09/07 05:45:17;;;;;;;9.30;3.40;;;;;;;13.40;100.00;97328.50;5050453;28;20586;-76
2021/09/07 05:47:45;;;;;;;4.27;3.30;;;;;;;13.73;100.00;97327.81;5049995;28;20198;-76
2021/09/07 05:50:14;;;;;;;8.07;3.73;;;;;;;13.90;100.00;97317.38;5050106;28;20285;-76
2021/09/07 05:52:41;;;;;;;6.53;3.93;;;;;;;14.13;100.00;97312.41;5050505;28;20667;-76
2021/09/07 05:55:10;;;;;;;4.07;3.27;;;;;;;14.26;100.00;97311.00;5050219;28;20678;-76
2021/09/07 05:57:37;;;;;;;7.23;3.33;;;;;;;14.08;100.00;97328.75;5050358;28;20706;-76
2021/09/07 06:00:08;;;;;;;6.57;3.50;;;;;;;14.17;100.00;97322.53;5050249;28;20206;-76
2021/09/07 06:02:35;;;;;;;9.07;3.10;;;;;;;14.41;100.00;97321.00;5050190;28;20197;-76
2021/09/07 06:05:03;;;;;;;6.57;3.17;;;;;;;14.47;100.00;97321.22;5050189;28;20198;-76
2021/09/07 06:07:30;;;;;;;7.17;2.60;;;;;;;14.21;100.00;97328.34;5050297;28;20693;-76
2021/09/07 06:09:57;;;;;;;7.47;2.80;;;;;;;14.30;100.00;97345.09;5050110;28;20200;-76
2021/09/07 06:12:25;;;;;;;5.13;2.53;;;;;;;14.69;100.00;97351.63;5050173;28;20208;-76
2021/09/07 06:14:52;;;;;;;4.83;2.90;;;;;;;14.92;100.00;97338.66;5050011;28;20250;-76
2021/09/07 06:17:21;;;;;;;9.43;3.03;;;;;;;14.99;100.00;97352.91;5049960;28;20236;-76
2021/09/07 06:19:48;;;;;;;14.43;2.63;;;;;;;15.10;100.00;97364.19;5049880;28;20303;-76
2021/09/07 06:22:15;;;;;;;4.93;2.10;;;;;;;15.12;100.00;97368.34;5050306;28;20206;-76
2021/09/07 06:24:43;;;;;;;3.20;2.10;;;;;;;15.25;100.00;97359.97;5050585;28;20268;-76
2021/09/07 06:27:10;;;;;;;3.17;2.37;;;;;;;15.51;100.00;97364.31;5049542;28;20198;-76
2021/09/07 06:29:37;;;;;;;3.63;2.50;;;;;;;15.93;100.00;97362.44;5050037;28;20692;-76
2021/09/07 06:32:05;;;;;;;1.90;1.80;;;;;;;16.01;100.00;97377.50;5049740;28;20205;-76
2021/09/07 06:34:34;;;;;;;4.93;2.17;;;;;;;16.11;100.00;97399.38;5050148;28;20198;-76
2021/09/07 06:37:01;;;;;;;5.20;2.03;;;;;;;16.05;100.00;97415.94;5049283;28;20316;-76
2021/09/07 06:39:28;;;;;;;2.47;1.33;;;;;;;16.24;100.00;97411.31;5049819;28;20289;-76
2021/09/07 06:41:56;;;;;;;2.57;2.23;;;;;;;16.45;100.00;97408.13;5049617;28;20236;-76
2021/09/07 06:44:23;;;;;;;3.00;1.60;;;;;;;16.54;100.00;97420.41;5049772;28;20201;-76
2021/09/07 06:46:50;;;;;;;4.53;1.60;;;;;;;16.87;100.00;97424.72;5049493;28;20299;-76
2021/09/07 06:49:17;;;;;;;6.07;1.80;;;;;;;17.15;100.00;97424.28;5049460;28;20205;-76
2021/09/07 06:51:46;;;;;;;2.10;1.90;;;;;;;17.13;100.00;97417.47;5049392;28;20690;-76
2021/09/07 06:54:13;;;;;;;3.63;1.53;;;;;;;17.27;100.00;97417.59;5049609;28;20580;-76
2021/09/07 06:56:40;;;;;;;1.80;1.57;;;;;;;17.24;100.00;97420.59;5049545;28;20231;-76
2021/09/07 06:59:07;;;;;;;3.87;1.93;;;;;;;17.41;100.00;97423.19;5049588;28;20282;-76
2021/09/07 07:01:35;;;;;;;1.67;1.30;;;;;;;17.80;100.00;97421.34;5049163;28;20239;-76
2021/09/07 07:04:02;;;;;;;6.10;2.10;;;;;;;18.18;100.00;97426.72;5049645;28;20236;-76
2021/09/07 07:06:29;;;;;;;3.30;1.90;;;;;;;17.96;100.00;97422.22;5049549;28;20208;-76
2021/09/07 07:08:58;;;;;;;3.77;2.10;;;;;;;17.59;100.00;97421.09;5049611;28;20205;-76
2021/09/07 07:11:25;;;;;;;2.20;1.40;;;;;;;17.59;100.00;97413.09;5048919;28;20197;-76
2021/09/07 07:13:52;;;;;;;3.67;1.97;;;;;;;17.62;100.00;97428.72;5049528;28;20197;-76
2021/09/07 07:16:19;;;;;;;2.30;1.70;;;;;;;17.74;100.00;97424.66;5049170;28;20224;-76
2021/09/07 07:18:46;;;;;;;3.87;1.97;;;;;;;18.24;100.00;97427.84;5049141;28;20233;-76
2021/09/07 07:21:14;;;;;;;3.43;1.80;;;;;;;17.90;100.00;97420.28;5049304;28;20240;-76
2021/09/07 07:23:41;;;;;;;3.03;1.80;;;;;;;17.86;100.00;97429.63;5049037;28;20296;-77
2021/09/07 07:26:10;;;;;;;3.50;2.03;;;;;;;18.14;100.00;97421.94;5049073;28;20289;-76
2021/09/07 07:28:37;;;;;;;4.73;2.43;;;;;;;17.94;100.00;97419.75;5049050;28;20202;-76
2021/09/07 07:31:04;;;;;;;1.73;1.63;;;;;;;17.81;100.00;97428.31;5048993;28;20666;-76
2021/09/07 07:33:31;;;;;;;2.83;1.90;;;;;;;17.71;100.00;97416.22;5049477;28;20205;-76
2021/09/07 07:35:59;;;;;;;3.97;1.50;;;;;;;17.76;100.00;97422.69;5048784;28;20205;-76
2021/09/07 07:38:26;;;;;;;1.97;1.20;;;;;;;18.42;100.00;97419.53;5048932;28;20202;-76
2021/09/07 07:40:53;;;;;;;2.13;1.63;;;;;;;19.17;100.00;97414.13;5048809;28;20216;-77
2021/09/07 07:43:24;;;;;;;3.47;1.60;;;;;;;19.50;100.00;97427.06;5049275;28;20206;-77
2021/09/07 07:45:52;;;;;;;5.10;1.77;;;;;;;18.91;100.00;97424.41;5048721;28;20250;-76
2021/09/07 07:48:19;;;;;;;4.43;1.70;;;;;;;18.98;100.00;97428.00;5048829;28;20213;-76
2021/09/07 07:50:46;;;;;;;2.17;1.43;;;;;;;18.65;100.00;97435.47;5048840;28;20194;-76
2021/09/07 07:53:14;;;;;;;1.87;1.50;;;;;;;18.37;100.00;97432.56;5049018;28;20224;-76
2021/09/07 07:55:41;;;;;;;3.33;1.47;;;;;;;18.20;100.00;97430.03;5048901;28;20210;-77
2021/09/07 07:58:08;;;;;;;1.73;1.53;;;;;;;18.17;100.00;97435.72;5048336;28;20614;-77
2021/09/07 08:00:37;;;;;;;3.87;2.37;;;;;;;18.19;100.00;97435.53;5048519;28;20198;-77
2021/09/07 08:03:04;;;;;;;2.37;1.40;;;;;;;18.36;100.00;97426.44;5048952;28;20201;-76
2021/09/07 08:05:31;;;;;;;2.30;1.57;;;;;;;18.66;100.00;97431.81;5048388;28;20198;-77
2021/09/07 08:07:58;;;;;;;4.17;1.70;;;;;;;19.05;100.00;97436.09;5048259;28;20649;-76
2021/09/07 08:10:26;;;;;;;5.00;1.73;;;;;;;19.46;100.00;97433.78;5048635;28;20213;-77
2021/09/07 08:12:53;;;;;;;1.67;1.40;;;;;;;20.43;100.00;97441.41;5051367;28;20198;-77
2021/09/07 08:15:20;;;;;;;2.60;1.63;;;;;;;20.72;100.00;97453.81;5051888;28;20202;-77
2021/09/07 08:17:50;;;;;;;2.90;1.93;;;;;;;20.21;100.00;97450.44;5052047;28;20228;-77
2021/09/07 08:20:17;;;;;;;2.30;1.60;;;;;;;19.65;100.00;97437.75;5051866;28;20565;-76
2021/09/07 08:22:45;;;;;;;4.30;1.70;;;;;;;19.81;100.00;97436.66;5052207;28;20204;-77
2021/09/07 08:25:13;;;;;;;1.97;1.70;;;;;;;20.51;100.00;97451.16;5051688;28;20285;-77
2021/09/07 08:27:41;;;;;;;1.53;1.40;;;;;;;21.21;100.00;97446.72;5051907;28;20194;-77
2021/09/07 08:30:09;;;;;;;1.30;1.20;;;;;;;20.81;100.00;97451.81;5051635;28;20201;-77
2021/09/07 08:32:40;;;;;;;9.20;1.60;;;;;;;20.97;100.00;97456.84;5051785;28;20220;-77
2021/09/07 08:35:10;;;;;;;1.40;1.30;;;;;;;20.82;100.00;97446.28;5051658;28;20561;-77
2021/09/07 08:37:38;;;;;;;2.00;1.80;;;;;;;19.43;100.00;97443.00;5051518;28;20252;-77
2021/09/07 08:40:07;;;;;;;1.50;1.40;;;;;;;19.32;100.00;97432.78;5051811;28;20205;-76
2021/09/07 08:42:36;;;;;;;2.07;1.60;;;;;;;18.76;100.00;97443.06;5051578;28;20285;-76
2021/09/07 08:45:05;;;;;;;2.20;1.40;;;;;;;18.79;100.00;97441.88;5051768;28;20202;-77
2021/09/07 08:47:32;;;;;;;1.67;1.50;;;;;;;18.92;100.00;97432.25;5051547;28;20686;-77
2021/09/07 08:50:01;;;;;;;3.57;1.43;;;;;;;19.14;100.00;97430.50;5051140;28;20201;-77
2021/09/07 08:52:31;;;;;;;4.50;1.57;;;;;;;19.27;100.00;97418.38;5051606;28;20198;-76
2021/09/07 08:54:58;;;;;;;1.90;1.50;;;;;;;19.50;100.00;97435.06;5051563;28;20280;-76
2021/09/07 08:57:26;;;;;;;3.40;1.77;;;;;;;19.56;100.00;97426.31;5051577;28;20225;-77
2021/09/07 08:59:57;;;;;;;3.20;1.57;;;;;;;19.97;100.00;97430.28;5051042;28;20198;-77
2021/09/07 09:02:26;;;;;;;2.03;1.70;;;;;;;20.58;100.00;97433.34;5051481;28;20270;-77
2021/09/07 09:04:54;;;;;;;3.37;1.50;;;;;;;19.87;100.00;97428.75;5051468;28;20198;-76
2021/09/07 09:07:23;;;;;;;1.70;1.60;;;;;;;19.86;100.00;97419.09;5051031;28;20201;-76
2021/09/07 09:09:53;;;;;;;2.97;1.40;;;;;;;19.88;100.00;97424.22;5051156;28;20297;-77
2021/09/07 09:12:31;;;;;;;3.30;1.40;;;;;;;19.83;100.00;97429.31;5051247;28;20208;-77
2021/09/07 09:14:59;;;;;;;1.80;1.37;;;;;;;19.64;100.00;97420.06;5051050;28;20197;-76
2021/09/07 09:17:28;;;;;;;1.73;1.43;;;;;;;19.56;100.00;97420.16;5051441;28;20222;-76
2021/09/07 09:19:58;;;;;;;2.50;1.40;;;;;;;19.63;100.00;97411.25;5050619;28;20229;-76
2021/09/07 09:22:44;;;;;;;3.10;1.67;;;;;;;19.99;100.00;97425.59;5050793;28;20201;-77
2021/09/07 09:25:40;;;;;;;4.67;1.93;;;;;;;19.84;100.00;97423.78;5050834;28;20186;-76
2021/09/07 09:28:14;;;;;;;3.30;1.60;;;;;;;19.51;100.00;97430.56;5037883;28;20627;-77
2021/09/07 09:30:43;;;;;;;9.40;1.73;;;;;;;19.35;100.00;97424.41;5050496;28;20281;-77
2021/09/07 09:33:12;;;;;;;3.87;1.47;;;;;;;19.42;100.00;97408.50;5051219;28;20198;-77
2021/09/07 09:35:48;;;;;;;4.07;1.90;;;;;;;19.45;100.00;97422.28;5050652;28;20296;-77
2021/09/07 09:38:16;;;;;;;3.00;1.73;;;;;;;19.38;100.00;97412.56;5051084;28;20214;-77
2021/09/07 09:40:51;;;;;;;3.33;1.77;;;;;;;19.20;100.00;97413.78;5050352;28;20201;-76
2021/09/07 09:43:38;;;;;;;2.27;1.50;;;;;;;19.13;100.00;97404.03;5050791;28;20189;-77
2021/09/07 09:46:20;;;;;;;3.03;1.80;;;;;;;19.26;100.00;97409.56;5050551;28;20273;-77
2021/09/07 09:48:48;;;;;;;2.50;1.77;;;;;;;19.22;100.00;97411.75;5050588;28;20289;-77
2021/09/07 09:51:18;;;;;;;2.97;1.70;;;;;;;19.07;100.00;97410.09;5050478;28;20197;-77
2021/09/07 09:53:47;;;;;;;6.87;1.70;;;;;;;19.20;100.00;97402.28;5051094;28;20198;-77
2021/09/07 09:56:17;;;;;;;2.27;1.70;;;;;;;19.36;100.00;97395.91;5050617;28;20198;-77
2021/09/07 09:58:44;;;;;;;3.37;1.60;;;;;;;19.16;100.00;97406.34;5050244;28;20317;-77
2021/09/07 10:01:11;;;;;;;6.93;1.80;;;;;;;19.14;100.00;97405.69;5050177;28;20229;-77
2021/09/07 10:03:40;;;;;;;6.20;1.70;;;;;;;19.40;100.00;97403.38;5050424;28;20202;-76
2021/09/07 10:06:08;;;;;;;2.47;1.57;;;;;;;19.91;100.00;97405.19;5050317;28;20293;-77
2021/09/07 10:08:40;;;;;;;1.30;1.20;;;;;;;21.30;100.00;97421.47;5050643;28;20577;-77
2021/09/07 10:11:12;;;;;;;2.37;2.00;;;;;;;21.54;100.00;97433.53;5049832;28;20186;-77
2021/09/07 10:13:44;;;;;;;2.13;1.60;;;;;;;21.84;100.00;97424.19;5050883;28;20205;-76
2021/09/07 10:16:14;;;;;;;2.77;1.63;;;;;;;21.60;100.00;97416.69;5050381;28;20218;-77
2021/09/07 10:18:52;;;;;;;1.77;1.67;;;;;;;20.72;100.00;97415.59;5050671;27;20324;-77
2021/09/07 10:24:59;;;;;;;3.87;1.60;;;;;;;20.64;100.00;97412.03;5050773;28;20218;-77
2021/09/07 10:28:03;;;;;;;4.63;1.73;;;;;;;20.34;100.00;97405.19;5050334;28;20178;-77
2021/09/07 10:31:02;;;;;;;1.80;1.33;;;;;;;20.31;100.00;97400.22;5049992;28;20235;-77
2021/09/07 10:33:34;;;;;;;2.67;1.77;;;;;;;20.14;100.00;97400.50;5046505;27;20204;-77
2021/09/07 10:36:13;;;;;;;7.67;1.57;;;;;;;20.01;100.00;97399.53;5049252;28;20183;-77
2021/09/07 10:38:43;;;;;;;3.40;1.73;;;;;;;20.10;100.00;97406.41;5049865;28;20586;-77
2021/09/07 10:41:12;;;;;;;3.77;1.50;;;;;;;20.96;100.00;97404.44;5049888;28;20202;-77
2021/09/07 10:44:06;;;;;;;3.50;1.63;;;;;;;21.80;100.00;97411.41;5049788;28;20289;-78
2021/09/07 10:46:46;;;;;;;2.07;1.27;;;;;;;21.95;100.00;97420.09;5014495;27;20862;-77
2021/09/07 10:52:13;;;;;;;3.37;1.30;;;;;;;21.30;100.00;97405.41;5228287;22;20242;-76
2021/09/07 10:54:48;;;;;;;2.70;1.83;;;;;;;20.77;100.00;97408.63;5013101;28;20298;-77
2021/09/07 10:57:52;;;;;;;1.97;1.83;;;;;;;20.52;100.00;97400.22;5012687;28;20194;-77
2021/09/07 11:00:43;;;;;;;2.30;1.47;;;;;;;20.60;100.00;97385.91;5011369;28;20206;-77
2021/09/07 11:03:13;;;;;;;2.90;2.10;;;;;;;20.63;100.00;97389.00;4993321;28;20295;-77
2021/09/07 11:05:45;;;;;;;2.27;1.77;;;;;;;20.72;100.00;97388.88;5012612;28;20297;-77
2021/09/07 11:08:15;;;;;;;3.07;1.50;;;;;;;20.44;100.00;97395.00;5012780;28;20592;-77
2021/09/07 11:10:43;;;;;;;1.80;1.70;;;;;;;20.50;100.00;97386.22;5012253;28;20195;-77
2021/09/07 11:13:16;;;;;;;2.07;1.70;;;;;;;20.58;100.00;97375.41;5012952;28;20231;-77
2021/09/07 11:15:45;;;;;;;4.17;2.30;;;;;;;20.59;100.00;97390.41;5012546;28;20641;-77
2021/09/07 11:18:15;;;;;;;1.97;1.40;;;;;;;20.54;100.00;97394.69;5012545;28;20227;-77
2021/09/07 11:20:43;;;;;;;3.07;2.33;;;;;;;20.65;100.00;97386.16;5012669;28;20202;-77
2021/09/07 11:23:12;;;;;;;1.70;1.60;;;;;;;20.76;100.00;97390.13;5012808;28;20207;-77
2021/09/07 11:25:43;;;;;;;5.63;2.10;;;;;;;20.70;100.00;97385.56;5012310;28;20187;-77
2021/09/07 11:28:12;;;;;;;5.13;2.67;;;;;;;20.79;100.00;97398.56;5012184;28;20570;-77
2021/09/07 11:30:41;;;;;;;4.67;2.87;;;;;;;20.63;100.00;97394.34;5012517;28;20682;-77
2021/09/07 11:33:11;;;;;;;3.93;2.10;;;;;;;20.64;100.00;97389.81;5012764;28;20197;-77
2021/09/07 11:35:43;;;;;;;1.97;1.77;;;;;;;20.94;100.00;97395.78;5012455;28;20581;-77
2021/09/07 11:38:12;;;;;;;6.20;2.00;;;;;;;21.43;100.00;97388.66;5011997;28;20207;-77